• Join FlightAware (Why Join?)
  • Login
  • US Flag 
Trick or treat! (Boo!!) 
08:48AM EDT


 

Airport Tracker/Info


-or-


 

Live Flight TrackerFlight Track Log ✈ ASQ6041 ✈ 16-Jul-2013 ✈ KGUC - KDEN

Flight Track Log - Related Links

Times and Time Zones

All times are in EDT time to prevent confusion due to time zone crossing. See the ASQ6041 flight status page for this flight to view local times or setup timezone preferences in your user account.

Time Position Orientation Groundspeed Altitude Reporting Facility
EDT Latitude Longitude Course Direction KTS MPH feet Rate Location/Type
02:35PM 38.7470 -106.6129 49° Northeast  Level FlightAware Approximate
02:36PM 38.8089 -106.5211 47° Northeast  Level FlightAware Approximate
02:37PM 38.8735 -106.4324 47° Northeast  Level FlightAware Approximate
02:37PM 38.4733 -107.0186 100° East 272 313 18,200  Level Denver Center
02:38PM 38.9402 -106.3500 North  Level FlightAware Approximate
02:38PM 38.5400 -106.9714 29° Northeast 283 326 19,500  Level Denver Center
02:39PM 39.0052 -106.2673 49° Northeast  Level FlightAware Approximate
02:39PM 38.5942 -106.8825 52° Northeast 314 361 20,300  Level Denver Center
02:40PM 39.0668 -106.1749 49° Northeast  Level FlightAware Approximate
02:41PM 39.1239 -106.0796 60° Northeast  Level FlightAware Approximate
02:41PM 38.6569 -106.7903 49° Northeast 335 386 21,600  Level Denver Center
02:42PM 39.1713 -105.9741 57° Northeast  Level FlightAware Approximate
02:42PM 38.7225 -106.6961 48° Northeast 348 400 22,700  Level Denver Center
02:43PM 38.8044 -106.5772 48° Northeast 368 423 23,000 120 Climbing Denver Center
02:44PM 38.8808 -106.4675 48° Northeast 400 460 23,000  Level Denver Center
02:45PM 38.9536 -106.3589 49° Northeast 415 478 23,000  Level Denver Center
02:46PM 39.0444 -106.2281 48° Northeast 434 499 23,000  Level Denver Center
02:47PM 39.1167 -106.1164 50° Northeast 436 502 23,000  Level Denver Center
02:48PM 39.1761 -105.9806 61° Northeast 436 502 23,000  Level Denver Center
02:49PM 39.2475 -105.8183 60° Northeast 434 499 23,000  Level Denver Center
02:50PM 39.3069 -105.6842 60° Northeast 432 497 23,000  Level Denver Center
02:51PM 39.3658 -105.5478 61° Northeast 435 501 23,000 -1,080 Level Denver Center
02:52PM 39.4383 -105.4019 57° Northeast 421 484 20,800 -2,400 Descending Denver Center
02:53PM 39.4972 -105.2914 55° Northeast 367 422 18,100 -1,920 Descending Denver Center
02:54PM 39.5475 -105.1919 57° Northeast 325 374 16,800 -1,320 Descending Denver Center
02:55PM 39.6000 -105.0928 55° Northeast 310 357 15,400 -1,020 Descending Denver Center
02:56PM 39.6478 -104.9997 56° Northeast 310 357 14,700 -540 Descending Denver Center
02:57PM 39.6975 -104.9044 56° Northeast 300 345 14,300 -780 Descending Denver Center
02:58PM 39.7656 -104.8428 35° Northeast 302 348 13,200 -1,380 Descending Denver Center
02:59PM 39.8592 -104.8414 North 309 356 11,500 -1,200 Descending Denver Center
03:00PM 39.9342 -104.8394 North 263 303 10,800 -900 Descending Denver Center
03:01PM 40.0097 -104.8403 360° North 251 289 9,700 -1,020 Descending Denver Center
03:02PM 40.0739 -104.8192 14° North 253 291 8,700 -1,020 Descending Denver Center
03:03PM 40.0567 -104.7436 107° East 242 278 7,600 -1,080 Descending Denver Center